createdAt,value
2017-09-30T00:02:13.940Z,32.40
2017-09-30T00:04:41.216Z,34.03
2017-09-30T00:07:08.371Z,36.00
2017-09-30T00:09:35.216Z,32.50
2017-09-30T00:12:02.060Z,33.83
2017-09-30T00:14:28.940Z,37.90
2017-09-30T00:16:55.825Z,31.10
2017-09-30T00:19:22.642Z,38.33
2017-09-30T00:21:49.510Z,48.73
2017-09-30T00:24:16.360Z,34.77
2017-09-30T00:26:43.531Z,35.67
2017-09-30T00:29:10.440Z,34.27
2017-09-30T00:31:37.614Z,32.33
2017-09-30T00:34:04.505Z,34.03
2017-09-30T00:36:31.351Z,33.17
2017-09-30T00:38:58.217Z,36.90
2017-09-30T00:41:25.312Z,32.17
2017-09-30T00:43:52.183Z,31.73
2017-09-30T00:46:19.023Z,33.90
2017-09-30T00:48:45.893Z,42.00
2017-09-30T00:51:12.764Z,36.33
2017-09-30T00:53:39.604Z,37.00
2017-09-30T00:56:06.448Z,36.13
2017-09-30T00:58:33.310Z,32.30
2017-09-30T01:01:00.212Z,36.30
2017-09-30T01:03:27.071Z,34.70
2017-09-30T01:05:54.244Z,41.83
2017-09-30T01:08:21.112Z,34.60
2017-09-30T01:10:47.980Z,31.97
2017-09-30T01:13:14.868Z,37.57
2017-09-30T01:15:41.743Z,32.47
2017-09-30T01:18:08.868Z,31.20
2017-09-30T01:20:35.739Z,31.40
2017-09-30T01:23:02.859Z,36.83
2017-09-30T01:25:29.707Z,33.33
2017-09-30T01:27:56.604Z,31.60
2017-09-30T01:30:23.804Z,34.23
2017-09-30T01:32:50.695Z,33.93
2017-09-30T01:35:17.896Z,32.13
2017-09-30T01:37:44.772Z,30.20
2017-09-30T01:40:11.608Z,30.57
2017-09-30T01:42:38.837Z,33.73
2017-09-30T01:45:05.691Z,37.57
2017-09-30T01:47:32.827Z,36.23
2017-09-30T01:49:59.980Z,31.40
2017-09-30T01:52:27.059Z,37.60
2017-09-30T01:54:53.937Z,30.77
2017-09-30T01:57:20.808Z,34.90
2017-09-30T01:59:47.666Z,33.30
2017-09-30T02:02:14.530Z,30.53
2017-09-30T02:04:41.388Z,31.47
2017-09-30T02:07:08.240Z,32.73
2017-09-30T02:09:35.105Z,32.70
2017-09-30T02:12:01.988Z,30.07
2017-09-30T02:14:28.799Z,34.20
2017-09-30T02:16:55.672Z,32.83
2017-09-30T02:19:22.523Z,34.00
2017-09-30T02:21:49.399Z,33.83
2017-09-30T02:24:16.280Z,29.83
2017-09-30T02:26:43.145Z,30.23
2017-09-30T02:29:09.974Z,35.53
2017-09-30T02:31:36.795Z,28.83
2017-09-30T02:34:03.980Z,38.03
2017-09-30T02:36:30.790Z,32.30
2017-09-30T02:38:57.599Z,28.80
2017-09-30T02:41:24.703Z,34.40
2017-09-30T02:43:51.520Z,31.83
2017-09-30T02:46:18.339Z,37.83
2017-09-30T02:48:45.548Z,31.03
2017-09-30T02:51:12.691Z,35.80
2017-09-30T02:53:39.540Z,34.33
2017-09-30T02:56:06.398Z,32.67
2017-09-30T02:58:33.249Z,31.03
2017-09-30T03:01:00.116Z,36.17
2017-09-30T03:03:26.949Z,33.27
2017-09-30T03:05:54.054Z,33.13
2017-09-30T03:08:20.873Z,31.90
2017-09-30T03:10:47.763Z,28.47
2017-09-30T03:13:14.582Z,31.50
2017-09-30T03:15:41.428Z,31.63
2017-09-30T03:18:08.524Z,34.40
2017-09-30T03:20:35.381Z,33.50
2017-09-30T03:23:02.195Z,30.97
2017-09-30T03:25:29.316Z,40.60
2017-09-30T03:27:56.131Z,33.50
2017-09-30T03:30:22.989Z,34.83
2017-09-30T03:32:49.865Z,30.07
2017-09-30T03:35:16.709Z,32.30
2017-09-30T03:37:43.560Z,35.00
2017-09-30T03:40:10.399Z,39.07
2017-09-30T03:42:37.260Z,32.17
2017-09-30T03:45:04.095Z,34.27
2017-09-30T03:47:30.930Z,40.37
2017-09-30T03:49:57.751Z,32.67
2017-09-30T03:52:24.600Z,32.70
2017-09-30T03:54:51.430Z,40.43
2017-09-30T03:57:18.277Z,29.77
2017-09-30T03:59:45.128Z,33.93
2017-09-30T04:02:12.005Z,36.30
2017-09-30T04:04:38.853Z,39.47
2017-09-30T04:07:05.704Z,32.10
2017-09-30T04:09:32.799Z,32.10
2017-09-30T04:11:59.664Z,36.70
2017-09-30T04:14:27.144Z,40.47
2017-09-30T04:16:53.983Z,37.03
2017-09-30T04:19:21.104Z,39.40
2017-09-30T04:21:48.244Z,39.23
2017-09-30T04:24:15.079Z,41.60
2017-09-30T04:26:42.234Z,35.20
2017-09-30T04:29:09.080Z,32.37
2017-09-30T04:31:36.230Z,33.13
2017-09-30T04:34:03.388Z,33.27
2017-09-30T04:36:30.235Z,38.17
2017-09-30T04:38:57.380Z,39.67
2017-09-30T04:41:24.211Z,33.00
2017-09-30T04:43:51.028Z,33.90
2017-09-30T04:46:18.110Z,36.07
2017-09-30T04:48:44.928Z,35.50
2017-09-30T04:51:11.801Z,40.23
2017-09-30T04:53:38.652Z,48.40
2017-09-30T04:56:05.792Z,35.63
2017-09-30T04:58:32.636Z,33.40
2017-09-30T05:00:59.501Z,36.23
2017-09-30T05:03:26.623Z,33.00
2017-09-30T05:05:53.453Z,41.63
2017-09-30T05:08:20.349Z,36.80
2017-09-30T05:10:47.209Z,54.67
2017-09-30T05:13:14.081Z,38.97
2017-09-30T05:15:40.942Z,39.57
2017-09-30T05:18:08.096Z,39.07
2017-09-30T05:20:34.947Z,43.00
2017-09-30T05:23:01.816Z,39.10
2017-09-30T05:25:28.639Z,37.07
2017-09-30T05:27:55.496Z,34.83
2017-09-30T05:30:22.343Z,36.40
2017-09-30T05:32:49.464Z,34.20
2017-09-30T05:35:16.607Z,33.33
2017-09-30T05:37:43.764Z,38.83
2017-09-30T05:40:10.926Z,41.10
2017-09-30T05:42:37.745Z,49.20
2017-09-30T05:45:05.316Z,84.40
2017-09-30T05:47:32.463Z,33.53
2017-09-30T05:49:59.567Z,36.23
2017-09-30T05:52:26.403Z,37.67
2017-09-30T05:54:53.219Z,33.97
2017-09-30T05:57:20.031Z,35.40
2017-09-30T05:59:46.876Z,40.83
2017-09-30T06:02:13.745Z,43.63
2017-09-30T06:04:40.657Z,51.37
2017-09-30T06:07:07.533Z,34.80
2017-09-30T06:09:34.666Z,39.90
2017-09-30T06:12:01.512Z,37.67
2017-09-30T06:14:28.659Z,36.43
2017-09-30T06:16:55.815Z,36.13
2017-09-30T06:19:23.239Z,35.43
2017-09-30T06:21:50.127Z,41.13
2017-09-30T06:24:16.944Z,41.80
2017-09-30T06:26:44.112Z,34.90
2017-09-30T06:29:10.985Z,40.03
2017-09-30T06:31:37.793Z,34.87
2017-09-30T06:34:04.615Z,35.57
2017-09-30T06:36:31.789Z,36.80
2017-09-30T06:38:58.632Z,34.60
2017-09-30T06:41:25.647Z,41.00
2017-09-30T06:43:52.491Z,45.33
2017-09-30T06:46:19.335Z,37.77
2017-09-30T06:48:46.417Z,36.00
2017-09-30T06:51:13.327Z,50.03
2017-09-30T06:53:40.175Z,39.77
2017-09-30T06:56:07.018Z,38.90
2017-09-30T06:58:33.864Z,36.40
2017-09-30T07:01:00.739Z,29.50
2017-09-30T07:03:27.587Z,36.23
2017-09-30T07:05:54.464Z,33.20
2017-09-30T07:08:21.309Z,33.63
2017-09-30T07:10:48.519Z,35.80
2017-09-30T07:13:15.400Z,35.57
2017-09-30T07:15:42.244Z,31.33
2017-09-30T07:18:09.106Z,33.03
2017-09-30T07:20:35.951Z,31.83
2017-09-30T07:23:02.804Z,32.57
2017-09-30T07:25:30.832Z,37.07
2017-09-30T07:27:57.675Z,41.13
2017-09-30T07:30:24.511Z,40.43
2017-09-30T07:32:51.365Z,39.87
2017-09-30T07:38:03.016Z,35.57
2017-09-30T07:40:29.793Z,32.23
2017-09-30T07:42:56.919Z,40.80
2017-09-30T07:45:23.759Z,36.63
2017-09-30T07:47:50.578Z,36.73
2017-09-30T07:50:17.397Z,32.90
2017-09-30T07:52:44.229Z,34.97
2017-09-30T07:55:11.340Z,34.90
2017-09-30T07:57:38.439Z,39.83
2017-09-30T08:00:05.379Z,29.40
2017-09-30T08:02:32.216Z,35.10
2017-09-30T08:04:59.023Z,34.63
2017-09-30T08:07:25.865Z,39.27
2017-09-30T08:09:52.643Z,38.97
2017-09-30T08:12:19.463Z,41.00
2017-09-30T08:14:46.591Z,31.20
2017-09-30T08:17:13.417Z,28.30
2017-09-30T08:19:40.206Z,26.70
2017-09-30T08:22:07.021Z,33.93
2017-09-30T08:24:34.067Z,36.80
2017-09-30T08:27:00.880Z,39.60
2017-09-30T08:29:27.723Z,32.23
2017-09-30T08:31:54.540Z,30.67
2017-09-30T08:34:21.355Z,30.53
2017-09-30T08:36:48.656Z,32.07
2017-09-30T08:39:16.103Z,30.97
2017-09-30T08:41:43.375Z,34.20
2017-09-30T08:44:10.865Z,29.60
2017-09-30T08:46:38.730Z,30.07
2017-09-30T08:49:06.495Z,36.63
2017-09-30T08:51:34.756Z,44.60
2017-09-30T08:54:02.203Z,29.63
2017-09-30T08:56:29.719Z,33.97
2017-09-30T08:58:57.696Z,32.13
2017-09-30T09:01:25.560Z,33.77
2017-09-30T09:03:52.691Z,36.60
2017-09-30T09:06:19.911Z,29.37
2017-09-30T09:08:47.887Z,27.30
2017-09-30T09:11:15.141Z,29.80
2017-09-30T09:13:42.814Z,39.23
2017-09-30T09:16:10.030Z,31.90
2017-09-30T09:18:37.307Z,30.33
2017-09-30T09:21:05.181Z,38.93
2017-09-30T09:23:32.977Z,27.83
2017-09-30T09:26:01.005Z,28.10
2017-09-30T09:28:29.287Z,31.47
2017-09-30T09:30:56.327Z,28.40
2017-09-30T09:33:23.136Z,27.80
2017-09-30T09:35:49.980Z,37.90
2017-09-30T09:38:16.761Z,29.60
2017-09-30T09:40:43.559Z,33.70
2017-09-30T09:43:10.403Z,29.53
2017-09-30T09:45:37.202Z,30.73
2017-09-30T09:48:04.355Z,33.83
2017-09-30T09:50:31.199Z,32.93
2017-09-30T09:52:58.239Z,28.83
2017-09-30T09:55:25.022Z,26.23
2017-09-30T09:57:52.091Z,26.77
2017-09-30T10:00:18.909Z,32.93
2017-09-30T10:02:45.690Z,29.30
2017-09-30T10:05:12.501Z,34.40
2017-09-30T10:07:39.328Z,29.00
2017-09-30T10:10:06.143Z,30.97
2017-09-30T10:12:33.913Z,28.67
2017-09-30T10:15:00.690Z,30.27
2017-09-30T10:17:27.799Z,32.47
2017-09-30T10:19:54.649Z,27.17
2017-09-30T10:22:21.455Z,28.90
2017-09-30T10:24:48.531Z,27.60
2017-09-30T10:27:15.350Z,30.90
2017-09-30T10:29:42.429Z,25.27
2017-09-30T10:32:09.210Z,28.40
2017-09-30T10:34:36.066Z,25.53
2017-09-30T10:37:02.887Z,22.20
2017-09-30T10:39:29.674Z,26.83
2017-09-30T10:41:56.523Z,28.10
2017-09-30T10:44:23.587Z,23.90
2017-09-30T10:46:50.376Z,22.37
2017-09-30T10:49:17.218Z,24.60
2017-09-30T10:51:44.060Z,23.50
2017-09-30T10:54:10.868Z,24.73
2017-09-30T10:56:38.007Z,24.90
2017-09-30T10:59:04.823Z,24.87
2017-09-30T11:01:31.656Z,30.83
2017-09-30T11:03:58.465Z,27.13
2017-09-30T11:06:25.255Z,24.57
2017-09-30T11:08:52.037Z,23.07
2017-09-30T11:11:18.850Z,23.23
2017-09-30T11:13:45.671Z,20.70
2017-09-30T11:16:12.754Z,22.20
2017-09-30T11:18:39.558Z,22.23
2017-09-30T11:21:06.345Z,20.20
2017-09-30T11:23:33.141Z,25.57
2017-09-30T11:26:00.218Z,23.57
2017-09-30T11:28:27.385Z,27.70
2017-09-30T11:30:54.192Z,21.63
2017-09-30T11:33:21.032Z,28.00
2017-09-30T11:35:47.851Z,23.20
2017-09-30T11:38:14.659Z,20.40
2017-09-30T11:40:41.790Z,20.70
2017-09-30T11:43:08.844Z,22.50
2017-09-30T11:45:35.633Z,23.60
2017-09-30T11:48:02.735Z,20.20
2017-09-30T11:50:29.888Z,16.43
2017-09-30T11:52:56.707Z,25.53
2017-09-30T11:55:23.774Z,18.73
2017-09-30T11:57:50.927Z,19.33
2017-09-30T12:00:17.740Z,19.83
2017-09-30T12:02:44.575Z,19.33
2017-09-30T12:05:11.391Z,21.30
2017-09-30T12:07:38.177Z,23.43
2017-09-30T12:10:05.238Z,23.50
2017-09-30T12:12:32.061Z,22.10
2017-09-30T12:14:59.136Z,17.80
2017-09-30T12:17:26.292Z,20.67
2017-09-30T12:19:53.334Z,21.50
2017-09-30T12:22:20.155Z,16.33
2017-09-30T12:24:46.999Z,17.43
2017-09-30T12:27:13.815Z,21.60
2017-09-30T12:29:40.592Z,20.50
2017-09-30T12:32:07.407Z,18.57
2017-09-30T12:34:34.243Z,26.93
2017-09-30T12:37:01.027Z,17.83
2017-09-30T12:39:27.871Z,19.00
2017-09-30T12:41:54.705Z,20.67
2017-09-30T12:44:21.758Z,21.63
2017-09-30T12:46:48.572Z,23.40
2017-09-30T12:49:15.395Z,21.03
2017-09-30T12:51:42.500Z,19.07
2017-09-30T12:54:09.748Z,18.10
2017-09-30T12:56:36.900Z,20.07
2017-09-30T12:59:03.844Z,21.00
2017-09-30T13:01:30.650Z,20.87
2017-09-30T13:03:57.478Z,19.40
2017-09-30T13:06:24.579Z,24.23
2017-09-30T13:08:51.386Z,19.63
2017-09-30T13:11:18.211Z,20.33
2017-09-30T13:13:45.031Z,23.17
2017-09-30T13:16:11.837Z,21.83
2017-09-30T13:18:38.899Z,19.23
2017-09-30T13:21:05.718Z,18.50
2017-09-30T13:23:32.894Z,19.93
2017-09-30T13:25:59.720Z,23.90
2017-09-30T13:28:26.531Z,19.63
2017-09-30T13:30:53.374Z,23.60
2017-09-30T13:33:20.150Z,16.20
2017-09-30T13:35:46.934Z,24.47
2017-09-30T13:38:13.788Z,19.30
2017-09-30T13:40:40.600Z,20.63
2017-09-30T13:43:07.416Z,25.23
2017-09-30T13:45:34.481Z,19.40
2017-09-30T13:48:01.300Z,20.73
2017-09-30T13:50:28.094Z,19.43
2017-09-30T13:52:54.910Z,17.07
2017-09-30T13:55:21.694Z,18.30
2017-09-30T13:57:48.485Z,24.83
2017-09-30T14:00:15.643Z,19.10
2017-09-30T14:02:42.795Z,30.40
2017-09-30T14:05:09.577Z,21.20
2017-09-30T14:07:36.427Z,19.07
2017-09-30T14:10:03.222Z,19.20
2017-09-30T14:12:30.376Z,24.20
2017-09-30T14:14:57.195Z,21.13
2017-09-30T14:17:24.008Z,20.77
2017-09-30T14:19:50.794Z,25.17
2017-09-30T14:22:17.635Z,19.97
2017-09-30T14:24:44.681Z,14.67
2017-09-30T14:27:11.515Z,21.80
2017-09-30T14:29:38.686Z,20.67
2017-09-30T14:32:05.831Z,17.83
2017-09-30T14:34:32.629Z,20.90
2017-09-30T14:36:59.464Z,18.83
2017-09-30T14:39:26.268Z,16.53
2017-09-30T14:41:53.116Z,19.27
2017-09-30T14:44:19.942Z,26.70
2017-09-30T14:46:46.747Z,22.90
2017-09-30T14:49:13.794Z,18.23
2017-09-30T14:51:40.651Z,17.60
2017-09-30T14:54:07.458Z,15.70
2017-09-30T14:56:34.305Z,24.93
2017-09-30T14:59:01.163Z,17.47
2017-09-30T15:01:27.961Z,21.00
2017-09-30T15:03:54.993Z,19.10
2017-09-30T15:06:21.817Z,18.40
2017-09-30T15:08:48.823Z,16.63
2017-09-30T15:11:15.642Z,21.27
2017-09-30T15:13:42.483Z,19.63
2017-09-30T15:16:09.257Z,16.70
2017-09-30T15:18:36.364Z,18.57
2017-09-30T15:21:03.174Z,18.50
2017-09-30T15:23:29.970Z,19.10
2017-09-30T15:25:56.775Z,23.37
2017-09-30T15:28:23.590Z,16.80
2017-09-30T15:30:50.677Z,15.90
2017-09-30T15:33:17.725Z,15.00
2017-09-30T15:35:44.567Z,16.27
2017-09-30T15:38:11.620Z,15.90
2017-09-30T15:40:38.407Z,19.80
2017-09-30T15:43:05.275Z,17.33
2017-09-30T15:45:32.059Z,15.27
2017-09-30T15:47:59.079Z,16.03
2017-09-30T15:50:25.915Z,16.70
2017-09-30T15:52:52.982Z,21.17
2017-09-30T15:55:19.766Z,18.93
2017-09-30T15:57:46.628Z,27.00
2017-09-30T16:00:13.451Z,20.80
2017-09-30T16:02:40.240Z,14.30
2017-09-30T16:05:07.054Z,20.60
2017-09-30T16:07:33.868Z,13.43
2017-09-30T16:10:00.751Z,16.63
2017-09-30T16:12:27.685Z,19.80
2017-09-30T16:14:54.469Z,15.40
2017-09-30T16:17:21.291Z,13.40
2017-09-30T16:19:48.106Z,17.77
2017-09-30T16:22:14.929Z,16.90
2017-09-30T16:24:41.942Z,20.33
2017-09-30T16:27:08.989Z,18.73
2017-09-30T16:29:35.808Z,13.10
2017-09-30T16:32:02.882Z,17.30
2017-09-30T16:34:29.734Z,14.50
2017-09-30T16:36:56.536Z,13.17
2017-09-30T16:39:23.630Z,21.50
2017-09-30T16:41:50.439Z,14.27
2017-09-30T16:44:17.272Z,20.30
2017-09-30T16:46:44.100Z,19.43
2017-09-30T16:49:11.193Z,17.17
2017-09-30T16:51:38.249Z,18.80
2017-09-30T16:54:05.038Z,13.33
2017-09-30T16:56:31.854Z,21.10
2017-09-30T16:58:58.873Z,19.80
2017-09-30T17:01:26.031Z,15.47
2017-09-30T17:03:53.174Z,16.67
2017-09-30T17:06:20.003Z,14.43
2017-09-30T17:08:46.816Z,15.40
2017-09-30T17:11:13.910Z,17.07
2017-09-30T17:13:40.739Z,18.30
2017-09-30T17:16:07.522Z,14.90
2017-09-30T17:18:34.648Z,19.20
2017-09-30T17:21:01.437Z,24.60
2017-09-30T17:23:28.222Z,17.50
2017-09-30T17:25:55.066Z,20.70
2017-09-30T17:28:21.841Z,16.37
2017-09-30T17:30:48.957Z,17.70
2017-09-30T17:33:15.802Z,15.17
2017-09-30T17:35:42.614Z,15.93
2017-09-30T17:38:09.394Z,14.70
2017-09-30T17:40:36.207Z,16.77
2017-09-30T17:43:03.031Z,17.27
2017-09-30T17:45:29.813Z,20.43
2017-09-30T17:47:56.670Z,14.70
2017-09-30T17:50:23.815Z,15.17
2017-09-30T17:52:50.643Z,18.10
2017-09-30T17:55:17.455Z,19.00
2017-09-30T17:57:44.275Z,23.33
2017-09-30T18:00:11.381Z,18.73
2017-09-30T18:02:38.538Z,17.67
2017-09-30T18:05:05.355Z,16.33
2017-09-30T18:07:32.149Z,18.97
2017-09-30T18:09:58.997Z,21.43
2017-09-30T18:12:25.778Z,20.67
2017-09-30T18:14:52.858Z,17.70
2017-09-30T18:17:19.727Z,26.60
2017-09-30T18:19:46.554Z,19.73
2017-09-30T18:22:13.409Z,14.40
2017-09-30T18:24:40.283Z,17.00
2017-09-30T18:27:07.387Z,15.43
2017-09-30T18:29:34.199Z,15.37
2017-09-30T18:32:01.028Z,14.53
2017-09-30T18:34:27.862Z,14.97
2017-09-30T18:36:54.657Z,15.07
2017-09-30T18:39:21.478Z,14.03
2017-09-30T18:41:48.338Z,12.00
2017-09-30T18:44:15.175Z,12.47
2017-09-30T18:46:42.044Z,13.73
2017-09-30T18:49:09.171Z,12.63
2017-09-30T18:51:36.039Z,15.23
2017-09-30T18:54:03.181Z,17.60
2017-09-30T18:56:30.322Z,12.80
2017-09-30T18:58:57.176Z,12.80
2017-09-30T19:01:24.034Z,16.80
2017-09-30T19:03:51.162Z,14.27
2017-09-30T19:06:17.988Z,20.13
2017-09-30T19:08:44.846Z,20.50
2017-09-30T19:11:11.657Z,13.10
2017-09-30T19:13:38.737Z,16.33
2017-09-30T19:16:05.576Z,25.20
2017-09-30T19:18:32.384Z,16.47
2017-09-30T19:20:59.438Z,13.00
2017-09-30T19:23:26.296Z,14.13
2017-09-30T19:25:53.144Z,18.43
2017-09-30T19:28:19.999Z,15.30
2017-09-30T19:30:46.875Z,16.00
2017-09-30T19:33:13.687Z,16.23
2017-09-30T19:35:40.542Z,32.53
2017-09-30T19:38:07.374Z,19.90
2017-09-30T19:40:34.192Z,19.13
2017-09-30T19:43:01.266Z,17.27
2017-09-30T19:45:28.408Z,13.33
2017-09-30T19:47:55.225Z,14.83
2017-09-30T19:50:22.077Z,18.50
2017-09-30T19:52:49.256Z,16.90
2017-09-30T19:55:16.070Z,16.20
2017-09-30T19:57:43.135Z,19.97
2017-09-30T20:00:09.969Z,16.70
2017-09-30T20:02:37.146Z,15.20
2017-09-30T20:05:03.937Z,15.70
2017-09-30T20:07:31.122Z,13.67
2017-09-30T20:09:57.936Z,13.97
2017-09-30T20:12:25.019Z,16.73
2017-09-30T20:14:51.858Z,14.70
2017-09-30T20:17:18.675Z,22.83
2017-09-30T20:19:45.491Z,17.20
2017-09-30T20:22:12.333Z,13.83
2017-09-30T20:24:39.430Z,21.10
2017-09-30T20:27:06.583Z,17.93
2017-09-30T20:29:33.398Z,14.33
2017-09-30T20:32:00.215Z,17.43
2017-09-30T20:34:27.005Z,16.17
2017-09-30T20:36:53.852Z,15.73
2017-09-30T20:39:20.675Z,13.73
2017-09-30T20:41:47.463Z,13.90
2017-09-30T20:44:14.290Z,14.83
2017-09-30T20:46:41.084Z,13.20
2017-09-30T20:49:07.869Z,20.17
2017-09-30T20:51:34.682Z,16.03
2017-09-30T20:54:01.500Z,12.90
2017-09-30T20:56:28.594Z,11.87
2017-09-30T20:58:55.442Z,15.40
2017-09-30T21:01:22.258Z,17.70
2017-09-30T21:03:49.090Z,12.87
2017-09-30T21:06:15.935Z,15.17
2017-09-30T21:08:43.019Z,15.23
2017-09-30T21:11:09.837Z,14.87
2017-09-30T21:13:36.917Z,15.53
2017-09-30T21:16:03.701Z,15.00
2017-09-30T21:18:30.490Z,16.83
2017-09-30T21:20:57.343Z,13.83
2017-09-30T21:23:24.118Z,12.53
2017-09-30T21:25:50.913Z,13.80
2017-09-30T21:28:17.757Z,28.23
2017-09-30T21:30:44.538Z,13.80
2017-09-30T21:33:11.364Z,16.03
2017-09-30T21:35:38.186Z,16.70
2017-09-30T21:38:04.979Z,17.30
2017-09-30T21:40:32.197Z,15.73
2017-09-30T21:42:59.344Z,19.30
2017-09-30T21:45:26.143Z,13.53
2017-09-30T21:47:52.997Z,16.33
2017-09-30T21:50:19.837Z,14.77
2017-09-30T21:52:46.915Z,16.90
2017-09-30T21:55:13.704Z,17.33
2017-09-30T21:57:40.747Z,14.33
2017-09-30T22:00:07.555Z,19.47
2017-09-30T22:02:34.341Z,13.93
2017-09-30T22:05:01.175Z,18.33
2017-09-30T22:07:28.203Z,13.23
2017-09-30T22:09:55.019Z,16.23
2017-09-30T22:12:21.859Z,19.87
2017-09-30T22:14:48.676Z,15.80
2017-09-30T22:17:15.592Z,16.60
2017-09-30T22:19:42.436Z,20.80
2017-09-30T22:22:09.261Z,20.43
2017-09-30T22:24:36.041Z,22.13
2017-09-30T22:27:03.353Z,20.83
2017-09-30T22:29:30.130Z,15.83
2017-09-30T22:31:56.923Z,16.67
2017-09-30T22:34:23.774Z,14.93
2017-09-30T22:36:50.546Z,20.30
2017-09-30T22:39:17.364Z,18.03
2017-09-30T22:41:44.174Z,15.47
2017-09-30T22:44:10.962Z,14.90
2017-09-30T22:46:37.783Z,20.30
2017-09-30T22:49:04.919Z,18.73
2017-09-30T22:51:31.750Z,16.40
2017-09-30T22:53:58.805Z,22.13
2017-09-30T22:56:25.651Z,18.50
2017-09-30T22:58:52.807Z,18.10
2017-09-30T23:01:19.622Z,19.90
2017-09-30T23:03:46.803Z,18.97
2017-09-30T23:06:13.631Z,22.60
2017-09-30T23:08:40.417Z,23.90
2017-09-30T23:11:07.267Z,20.20
2017-09-30T23:13:34.330Z,24.00
2017-09-30T23:16:01.147Z,24.93
2017-09-30T23:18:27.954Z,25.43
2017-09-30T23:20:54.742Z,24.63
2017-09-30T23:23:21.843Z,26.17
2017-09-30T23:25:48.691Z,26.67
2017-09-30T23:28:15.506Z,31.33
2017-09-30T23:30:42.315Z,24.27
2017-09-30T23:33:09.427Z,29.43
2017-09-30T23:35:36.209Z,28.53
2017-09-30T23:38:03.315Z,32.07
2017-09-30T23:40:30.151Z,26.97
2017-09-30T23:42:56.938Z,28.40
2017-09-30T23:45:23.719Z,23.70
2017-09-30T23:47:50.899Z,26.70
2017-09-30T23:50:17.714Z,27.67
2017-09-30T23:52:44.530Z,31.30
2017-09-30T23:55:11.573Z,27.20
2017-09-30T23:57:38.418Z,29.30
